createdAt,value
2022-10-26T00:00:34.220Z,-0.46
2022-10-26T00:03:07.450Z,-0.48
2022-10-26T00:05:40.884Z,-0.52
2022-10-26T00:08:14.782Z,-0.54
2022-10-26T00:10:48.247Z,-0.59
2022-10-26T00:13:21.554Z,-0.63
2022-10-26T00:15:55.134Z,-0.63
2022-10-26T00:18:28.542Z,-0.61
2022-10-26T00:21:06.559Z,-0.63
2022-10-26T00:23:39.730Z,-0.58
2022-10-26T00:26:13.658Z,-0.62
2022-10-26T00:28:47.122Z,-0.67
2022-10-26T00:31:20.669Z,-0.70
2022-10-26T00:33:56.514Z,-0.77
2022-10-26T00:36:30.469Z,-0.79
2022-10-26T00:39:03.596Z,-0.81
2022-10-26T00:41:37.459Z,-0.82
2022-10-26T00:44:46.377Z,-0.81
2022-10-26T00:47:21.852Z,-0.81
2022-10-26T00:49:57.855Z,-0.78
2022-10-26T00:52:31.943Z,-0.73
2022-10-26T00:55:05.627Z,-0.68
2022-10-26T00:57:40.613Z,-0.66
2022-10-26T01:00:15.395Z,-0.59
2022-10-26T01:02:51.938Z,-0.57
2022-10-26T01:05:25.534Z,-0.51
2022-10-26T01:07:59.486Z,-0.43
2022-10-26T01:10:33.372Z,-0.41
2022-10-26T01:13:07.814Z,-0.40
2022-10-26T01:15:46.172Z,-0.38
2022-10-26T01:18:23.703Z,-0.39
2022-10-26T01:21:29.183Z,-0.36
2022-10-26T01:24:23.614Z,-0.34
2022-10-26T01:27:24.180Z,-0.32
2022-10-26T01:30:16.480Z,-0.32
2022-10-26T01:32:57.195Z,-0.31
2022-10-26T01:35:33.919Z,-0.32
2022-10-26T01:38:10.130Z,-0.30
2022-10-26T01:40:46.705Z,-0.27
2022-10-26T01:43:22.274Z,-0.30
2022-10-26T01:45:57.153Z,-0.28
2022-10-26T01:48:31.433Z,-0.30
2022-10-26T01:51:07.782Z,-0.28
2022-10-26T01:53:46.535Z,-0.32
2022-10-26T01:56:24.592Z,-0.32
2022-10-26T01:59:13.898Z,-0.42
2022-10-26T02:02:04.800Z,-0.48
2022-10-26T02:04:43.174Z,-0.53
2022-10-26T02:07:22.632Z,-0.50
2022-10-26T02:10:00.449Z,-0.54
2022-10-26T02:15:20.801Z,-0.38
2022-10-26T02:17:57.123Z,-0.51
2022-10-26T02:20:32.928Z,-0.52
2022-10-26T02:23:08.678Z,-0.48
2022-10-26T02:25:44.888Z,-0.47
2022-10-26T02:28:21.435Z,-0.47
2022-10-26T02:30:57.607Z,-0.45
2022-10-26T02:33:33.541Z,-0.36
2022-10-26T02:36:10.537Z,-0.35
2022-10-26T02:38:46.687Z,-0.32
2022-10-26T02:41:21.645Z,-0.27
2022-10-26T02:43:57.682Z,-0.24
2022-10-26T02:46:31.779Z,-0.18
2022-10-26T02:49:05.355Z,-0.13
2022-10-26T02:51:41.747Z,-0.12
2022-10-26T02:54:18.867Z,-0.07
2022-10-26T02:56:55.438Z,-0.03
2022-10-26T02:59:31.902Z,-0.03
2022-10-26T03:02:06.074Z,-0.03
2022-10-26T03:04:39.477Z,0.04
2022-10-26T03:07:12.748Z,0.02
2022-10-26T03:09:46.012Z,0.02
2022-10-26T03:12:19.425Z,0.07
2022-10-26T03:14:52.502Z,0.05
2022-10-26T03:17:25.699Z,0.09
2022-10-26T03:19:59.087Z,0.09
2022-10-26T03:22:34.154Z,0.09
2022-10-26T03:27:43.548Z,0.08
2022-10-26T03:30:16.964Z,0.09
2022-10-26T03:32:50.255Z,0.11
2022-10-26T03:35:23.484Z,0.11
2022-10-26T03:37:57.055Z,0.09
2022-10-26T03:40:30.337Z,0.15
2022-10-26T03:43:03.869Z,0.11
2022-10-26T03:45:37.079Z,0.16
2022-10-26T03:48:10.295Z,0.18
2022-10-26T03:50:43.654Z,0.18
2022-10-26T03:53:17.186Z,0.24
2022-10-26T03:55:50.568Z,0.24
2022-10-26T04:00:59.677Z,0.24
2022-10-26T04:03:33.260Z,0.26
2022-10-26T04:06:07.326Z,0.23
2022-10-26T04:08:40.576Z,0.24
2022-10-26T04:11:14.037Z,0.26
2022-10-26T04:13:48.794Z,0.28
2022-10-26T04:16:22.652Z,0.30
2022-10-26T04:18:56.140Z,0.33
2022-10-26T04:21:33.691Z,0.37
2022-10-26T04:24:07.798Z,0.39
2022-10-26T04:26:41.168Z,0.46
2022-10-26T04:29:15.370Z,0.45
2022-10-26T04:31:48.646Z,0.47
2022-10-26T04:34:21.862Z,0.49
2022-10-26T04:36:56.247Z,0.51
2022-10-26T04:39:29.900Z,0.54
2022-10-26T04:42:03.061Z,0.56
2022-10-26T04:44:36.651Z,0.61
2022-10-26T04:47:10.377Z,0.63
2022-10-26T04:49:43.932Z,0.63
2022-10-26T04:52:17.455Z,0.69
2022-10-26T04:54:51.133Z,0.68
2022-10-26T04:57:36.922Z,0.69
2022-10-26T05:00:13.231Z,0.72
2022-10-26T05:02:46.699Z,0.74
2022-10-26T05:05:20.482Z,0.74
2022-10-26T05:07:58.017Z,0.79
2022-10-26T05:10:31.702Z,0.82
2022-10-26T05:13:04.863Z,0.87
2022-10-26T05:15:38.256Z,0.93
2022-10-26T05:18:11.909Z,0.96
2022-10-26T05:20:45.420Z,1.06
2022-10-26T05:23:19.221Z,1.11
2022-10-26T05:25:52.733Z,1.10
2022-10-26T05:28:25.952Z,1.13
2022-10-26T05:31:00.861Z,1.19
2022-10-26T05:33:34.328Z,1.22
2022-10-26T05:36:08.762Z,1.27
2022-10-26T05:38:42.223Z,1.32
2022-10-26T05:41:15.706Z,1.33
2022-10-26T05:43:50.766Z,1.34
2022-10-26T05:46:24.061Z,1.32
2022-10-26T05:48:57.193Z,1.33
2022-10-26T05:51:30.640Z,1.35
2022-10-26T05:54:04.336Z,1.40
2022-10-26T05:56:39.857Z,1.40
2022-10-26T05:59:16.845Z,1.44
2022-10-26T06:01:56.297Z,1.53
2022-10-26T06:04:40.190Z,1.72
2022-10-26T06:07:15.955Z,1.80
2022-10-26T06:09:51.401Z,1.98
2022-10-26T06:12:26.712Z,2.11
2022-10-26T06:15:02.077Z,2.07
2022-10-26T06:17:40.920Z,2.17
2022-10-26T06:20:31.183Z,2.23
2022-10-26T06:23:10.973Z,2.36
2022-10-26T06:25:47.723Z,2.37
2022-10-26T06:28:27.441Z,2.51
2022-10-26T06:31:01.181Z,2.56
2022-10-26T06:33:34.899Z,2.71
2022-10-26T06:36:17.884Z,2.86
2022-10-26T06:38:53.273Z,3.34
2022-10-26T06:41:27.991Z,3.74
2022-10-26T06:44:02.512Z,3.99
2022-10-26T06:46:40.195Z,4.17
2022-10-26T06:49:19.637Z,4.58
2022-10-26T06:51:56.957Z,5.00
2022-10-26T06:54:35.439Z,5.67
2022-10-26T06:57:12.631Z,5.73
2022-10-26T06:59:50.846Z,5.23
2022-10-26T07:02:25.323Z,4.85
2022-10-26T07:05:00.282Z,4.58
2022-10-26T07:07:34.667Z,4.38
2022-10-26T07:10:09.461Z,4.24
2022-10-26T07:12:43.194Z,4.28
2022-10-26T07:15:16.832Z,4.28
2022-10-26T07:17:51.411Z,4.30
2022-10-26T07:20:25.231Z,4.21
2022-10-26T07:22:59.207Z,4.33
2022-10-26T07:25:32.612Z,4.44
2022-10-26T07:28:06.191Z,4.38
2022-10-26T07:30:40.331Z,4.39
2022-10-26T07:33:15.388Z,4.66
2022-10-26T07:35:48.709Z,4.75
2022-10-26T07:38:22.161Z,4.91
2022-10-26T07:40:56.077Z,4.93
2022-10-26T07:43:29.324Z,5.03
2022-10-26T07:46:02.713Z,5.14
2022-10-26T07:48:36.241Z,5.10
2022-10-26T07:51:09.873Z,4.93
2022-10-26T07:53:43.278Z,4.95
2022-10-26T07:56:16.667Z,4.93
2022-10-26T07:58:50.239Z,4.91
2022-10-26T08:01:23.546Z,4.92
2022-10-26T08:03:57.564Z,5.01
2022-10-26T08:06:31.151Z,5.05
2022-10-26T08:09:04.434Z,5.19
2022-10-26T08:11:38.117Z,5.37
2022-10-26T08:14:13.191Z,5.54
2022-10-26T08:16:47.508Z,5.65
2022-10-26T08:19:21.309Z,5.65
2022-10-26T08:21:55.146Z,5.84
2022-10-26T08:24:28.630Z,6.21
2022-10-26T08:27:02.354Z,6.22
2022-10-26T08:29:35.875Z,6.43
2022-10-26T08:32:09.590Z,6.61
2022-10-26T08:34:42.870Z,6.54
2022-10-26T08:37:16.266Z,6.57
2022-10-26T08:39:53.554Z,6.55
2022-10-26T08:42:27.827Z,6.57
2022-10-26T08:45:05.068Z,6.68
2022-10-26T08:47:43.285Z,6.84
2022-10-26T08:50:20.345Z,6.94
2022-10-26T08:52:58.530Z,6.97
2022-10-26T08:55:36.418Z,7.05
2022-10-26T08:58:09.653Z,6.91
2022-10-26T09:00:43.831Z,7.01
2022-10-26T09:03:18.667Z,6.66
2022-10-26T09:05:59.406Z,6.55
2022-10-26T09:08:37.357Z,6.54
2022-10-26T09:11:16.333Z,6.43
2022-10-26T09:13:58.896Z,6.51
2022-10-26T09:16:35.640Z,6.30
2022-10-26T09:19:19.365Z,6.41
2022-10-26T09:21:55.417Z,6.72
2022-10-26T09:24:33.136Z,6.66
2022-10-26T09:27:10.901Z,6.81
2022-10-26T09:29:45.289Z,6.70
2022-10-26T09:32:21.150Z,6.87
2022-10-26T09:34:57.911Z,6.82
2022-10-26T09:37:34.132Z,6.94
2022-10-26T09:40:12.176Z,6.94
2022-10-26T09:42:48.250Z,7.14
2022-10-26T09:45:24.571Z,7.02
2022-10-26T09:48:03.925Z,6.94
2022-10-26T09:50:37.779Z,6.72
2022-10-26T09:53:11.445Z,6.87
2022-10-26T09:55:47.669Z,6.71
2022-10-26T10:01:04.551Z,7.71
2022-10-26T10:03:37.859Z,7.75
2022-10-26T10:06:22.225Z,7.96
2022-10-26T10:09:11.341Z,7.95
2022-10-26T10:11:49.419Z,7.73
2022-10-26T10:14:23.536Z,7.50
2022-10-26T10:16:59.699Z,7.48
2022-10-26T10:19:34.474Z,7.27
2022-10-26T10:22:15.412Z,7.11
2022-10-26T10:24:56.432Z,7.10
2022-10-26T10:27:30.967Z,7.09
2022-10-26T10:30:19.184Z,7.15
2022-10-26T10:33:06.768Z,7.09
2022-10-26T10:35:43.225Z,6.90
2022-10-26T10:38:19.644Z,6.93
2022-10-26T10:40:55.167Z,6.95
2022-10-26T10:43:29.491Z,6.99
2022-10-26T10:46:03.154Z,7.00
2022-10-26T10:48:39.341Z,6.97
2022-10-26T10:51:13.152Z,7.01
2022-10-26T10:53:50.134Z,7.03
2022-10-26T10:56:32.828Z,6.99
2022-10-26T10:59:15.024Z,7.09
2022-10-26T11:01:52.318Z,7.12
2022-10-26T11:04:35.523Z,7.08
2022-10-26T11:07:10.979Z,6.84
2022-10-26T11:09:47.642Z,6.62
2022-10-26T11:12:23.423Z,6.65
2022-10-26T11:14:59.727Z,6.72
2022-10-26T11:17:37.064Z,6.68
2022-10-26T11:20:16.195Z,6.63
2022-10-26T11:22:59.441Z,6.49
2022-10-26T11:25:36.848Z,6.32
2022-10-26T11:28:15.221Z,6.37
2022-10-26T11:30:52.718Z,6.41
2022-10-26T11:33:29.266Z,6.45
2022-10-26T11:36:05.027Z,6.34
2022-10-26T11:38:56.027Z,6.34
2022-10-26T11:41:21.270Z,6.43
2022-10-26T11:43:57.525Z,6.40
2022-10-26T11:46:33.795Z,6.45
2022-10-26T11:49:12.309Z,6.61
2022-10-26T11:51:48.748Z,6.70
2022-10-26T11:54:26.238Z,6.69
2022-10-26T11:57:01.498Z,6.68
2022-10-26T11:59:37.619Z,6.64
2022-10-26T12:02:14.048Z,6.68
2022-10-26T12:04:50.291Z,6.72
2022-10-26T12:07:28.517Z,6.72
2022-10-26T12:10:04.700Z,6.60
2022-10-26T12:12:41.271Z,6.55
2022-10-26T12:15:24.799Z,6.52
2022-10-26T12:17:59.814Z,6.45
2022-10-26T12:21:09.308Z,6.36
2022-10-26T12:23:56.023Z,6.37
2022-10-26T12:26:43.473Z,6.22
2022-10-26T12:29:37.310Z,6.31
2022-10-26T12:32:55.654Z,6.25
2022-10-26T12:35:43.864Z,6.30
2022-10-26T12:39:02.281Z,6.16
2022-10-26T12:41:39.901Z,6.22
2022-10-26T12:44:35.739Z,6.19
2022-10-26T12:47:09.865Z,5.96
2022-10-26T12:50:06.072Z,5.89
2022-10-26T12:52:59.750Z,5.90
2022-10-26T12:56:06.586Z,5.96
2022-10-26T12:59:13.198Z,5.99
2022-10-26T13:02:21.153Z,5.91
2022-10-26T13:05:12.432Z,5.80
2022-10-26T13:07:48.791Z,5.66
2022-10-26T13:10:26.135Z,5.65
2022-10-26T13:13:02.256Z,5.57
2022-10-26T13:15:39.318Z,5.50
2022-10-26T13:18:18.169Z,5.47
2022-10-26T13:21:02.715Z,5.54
2022-10-26T13:23:39.347Z,5.46
2022-10-26T13:26:15.991Z,5.25
2022-10-26T13:28:52.372Z,5.15
2022-10-26T13:31:58.598Z,5.11
2022-10-26T13:34:33.658Z,5.11
2022-10-26T13:37:16.472Z,5.06
2022-10-26T13:40:01.090Z,4.94
2022-10-26T13:42:38.929Z,4.94
2022-10-26T13:45:15.844Z,4.84
2022-10-26T13:47:53.157Z,4.79
2022-10-26T13:50:32.037Z,4.72
2022-10-26T13:53:09.058Z,4.69
2022-10-26T13:55:42.299Z,4.69
2022-10-26T13:58:21.677Z,4.64
2022-10-26T14:01:06.466Z,4.56
2022-10-26T14:03:41.087Z,4.50
2022-10-26T14:06:19.552Z,4.48
2022-10-26T14:08:55.430Z,4.45
2022-10-26T14:11:35.235Z,4.39
2022-10-26T14:14:10.197Z,4.36
2022-10-26T14:16:47.405Z,4.30
2022-10-26T14:19:23.534Z,4.24
2022-10-26T14:21:58.012Z,4.21
2022-10-26T14:24:46.706Z,4.10
2022-10-26T14:27:18.578Z,4.02
2022-10-26T14:30:20.388Z,4.05
2022-10-26T14:32:32.262Z,3.96
2022-10-26T14:35:06.148Z,3.94
2022-10-26T14:37:43.407Z,3.89
2022-10-26T14:40:20.644Z,3.99
2022-10-26T14:42:57.094Z,3.93
2022-10-26T14:45:50.453Z,3.84
2022-10-26T14:48:18.646Z,3.85
2022-10-26T14:51:06.374Z,3.85
2022-10-26T14:53:39.891Z,3.82
2022-10-26T14:56:26.634Z,3.78
2022-10-26T14:59:00.684Z,3.74
2022-10-26T15:01:36.849Z,3.81
2022-10-26T15:04:24.692Z,3.69
2022-10-26T15:06:58.040Z,3.61
2022-10-26T15:09:33.922Z,3.66
2022-10-26T15:12:09.620Z,3.57
2022-10-26T15:14:46.037Z,3.55
2022-10-26T15:17:24.188Z,3.56
2022-10-26T15:19:58.038Z,3.55
2022-10-26T15:22:32.461Z,3.54
2022-10-26T15:25:08.109Z,3.55
2022-10-26T15:27:43.219Z,3.50
2022-10-26T15:30:22.702Z,3.53
2022-10-26T15:32:56.937Z,3.50
2022-10-26T15:35:34.266Z,3.50
2022-10-26T15:38:12.435Z,3.59
2022-10-26T15:40:46.434Z,3.49
2022-10-26T15:43:19.932Z,3.46
2022-10-26T15:45:54.769Z,3.47
2022-10-26T15:48:29.870Z,3.47
2022-10-26T15:51:03.228Z,3.48
2022-10-26T15:53:37.229Z,3.42
2022-10-26T15:56:16.896Z,3.47
2022-10-26T15:58:50.624Z,3.55
2022-10-26T16:01:26.399Z,3.50
2022-10-26T16:03:59.588Z,3.55
2022-10-26T16:06:35.867Z,3.56
2022-10-26T16:09:12.952Z,3.53
2022-10-26T16:11:46.655Z,3.53
2022-10-26T16:14:19.843Z,3.53
2022-10-26T16:16:53.111Z,3.48
2022-10-26T16:19:30.705Z,3.54
2022-10-26T16:22:02.604Z,3.44
2022-10-26T16:24:36.805Z,3.44
2022-10-26T16:27:10.869Z,3.44
2022-10-26T16:29:44.511Z,3.45
2022-10-26T16:32:18.069Z,3.47
2022-10-26T16:34:51.512Z,3.42
2022-10-26T16:37:25.307Z,3.40
2022-10-26T16:40:01.105Z,3.53
2022-10-26T16:42:37.120Z,3.47
2022-10-26T16:45:11.904Z,3.40
2022-10-26T16:47:45.673Z,3.40
2022-10-26T16:50:26.238Z,3.38
2022-10-26T16:53:00.802Z,3.41
2022-10-26T16:55:36.214Z,3.37
2022-10-26T16:58:09.681Z,3.37
2022-10-26T17:00:43.041Z,3.41
2022-10-26T17:03:18.745Z,3.34
2022-10-26T17:05:56.843Z,3.28
2022-10-26T17:08:31.643Z,3.27
2022-10-26T17:11:11.941Z,3.35
2022-10-26T17:13:49.145Z,3.28
2022-10-26T17:16:24.903Z,3.27
2022-10-26T17:19:01.876Z,3.27
2022-10-26T17:21:39.481Z,3.24
2022-10-26T17:24:18.457Z,3.20
2022-10-26T17:26:52.316Z,3.20
2022-10-26T17:29:37.302Z,3.22
2022-10-26T17:32:15.595Z,3.19
2022-10-26T17:34:48.821Z,3.26
2022-10-26T17:37:22.225Z,3.17
2022-10-26T17:39:55.975Z,3.14
2022-10-26T17:42:29.556Z,3.12
2022-10-26T17:45:03.245Z,3.11
2022-10-26T17:47:36.830Z,3.11
2022-10-26T17:50:11.569Z,3.09
2022-10-26T17:52:44.977Z,3.09
2022-10-26T17:55:18.847Z,3.09
2022-10-26T17:57:52.600Z,3.08
2022-10-26T18:00:25.970Z,3.04
2022-10-26T18:05:32.789Z,2.97
2022-10-26T18:08:06.038Z,2.96
2022-10-26T18:10:39.588Z,2.97
2022-10-26T18:13:13.077Z,3.01
2022-10-26T18:15:47.321Z,3.02
2022-10-26T18:18:20.599Z,2.98
2022-10-26T18:20:54.062Z,2.89
2022-10-26T18:23:27.124Z,2.89
2022-10-26T18:26:11.120Z,2.88
2022-10-26T18:28:40.596Z,2.87
2022-10-26T18:31:14.882Z,2.87
2022-10-26T18:33:48.360Z,2.89
2022-10-26T18:36:21.988Z,2.83
2022-10-26T18:38:55.978Z,2.81
2022-10-26T18:41:29.466Z,2.86
2022-10-26T18:44:02.815Z,2.81
2022-10-26T18:46:40.081Z,2.82
2022-10-26T18:49:14.171Z,2.87
2022-10-26T18:51:47.727Z,2.84
2022-10-26T18:54:21.043Z,2.81
2022-10-26T18:56:54.113Z,2.78
2022-10-26T18:59:28.269Z,2.73
2022-10-26T19:02:02.047Z,2.73
2022-10-26T19:04:35.464Z,2.75
2022-10-26T19:07:09.130Z,2.76
2022-10-26T19:09:42.605Z,2.72
2022-10-26T19:12:15.891Z,2.66
2022-10-26T19:14:49.910Z,2.63
2022-10-26T19:17:23.568Z,2.64
2022-10-26T19:19:57.095Z,2.66
2022-10-26T19:22:30.993Z,2.66
2022-10-26T19:25:06.958Z,2.68
2022-10-26T19:27:45.073Z,2.64
2022-10-26T19:30:23.398Z,2.62
2022-10-26T19:33:01.316Z,2.62
2022-10-26T19:35:33.384Z,2.61
2022-10-26T19:38:06.479Z,2.70
2022-10-26T19:40:39.891Z,2.62
2022-10-26T19:43:14.530Z,2.62
2022-10-26T19:45:47.986Z,2.61
2022-10-26T19:48:21.132Z,2.62
2022-10-26T19:50:56.263Z,2.64
2022-10-26T19:53:29.749Z,2.72
2022-10-26T19:56:05.122Z,2.76
2022-10-26T19:58:38.497Z,2.73
2022-10-26T20:01:12.837Z,2.71
2022-10-26T20:03:46.355Z,2.73
2022-10-26T20:06:19.963Z,2.79
2022-10-26T20:08:53.532Z,2.75
2022-10-26T20:11:27.196Z,2.76
2022-10-26T20:14:03.367Z,2.78
2022-10-26T20:16:36.571Z,2.77
2022-10-26T20:19:10.792Z,2.78
2022-10-26T20:21:43.802Z,2.79
2022-10-26T20:24:17.289Z,2.75
2022-10-26T20:26:50.668Z,2.77
2022-10-26T20:29:24.233Z,2.75
2022-10-26T20:31:59.408Z,2.77
2022-10-26T20:34:32.763Z,2.82
2022-10-26T20:37:06.588Z,2.85
2022-10-26T20:39:41.880Z,2.89
2022-10-26T20:42:23.976Z,2.86
2022-10-26T20:45:01.416Z,2.90
2022-10-26T20:47:35.992Z,2.90
2022-10-26T20:50:13.133Z,2.93
2022-10-26T20:52:49.571Z,2.98
2022-10-26T20:55:32.764Z,3.10
2022-10-26T20:58:08.822Z,3.12
2022-10-26T21:00:45.314Z,3.21
2022-10-26T21:03:18.407Z,3.26
2022-10-26T21:05:51.815Z,3.30
2022-10-26T21:08:25.838Z,3.28
2022-10-26T21:10:59.227Z,3.31
2022-10-26T21:13:32.600Z,3.25
2022-10-26T21:16:08.124Z,3.21
2022-10-26T21:18:41.627Z,3.20
2022-10-26T21:21:15.128Z,3.21
2022-10-26T21:23:48.530Z,3.30
2022-10-26T21:26:21.720Z,3.37
2022-10-26T21:28:55.262Z,3.39
2022-10-26T21:31:28.582Z,3.40
2022-10-26T21:34:01.968Z,3.36
2022-10-26T21:36:35.506Z,3.40
2022-10-26T21:39:09.041Z,3.47
2022-10-26T21:41:43.995Z,3.54
2022-10-26T21:44:40.466Z,3.53
2022-10-26T21:46:52.703Z,3.51
2022-10-26T21:49:26.087Z,3.42
2022-10-26T21:51:59.307Z,3.37
2022-10-26T21:54:32.608Z,3.31
2022-10-26T21:57:06.165Z,3.24
2022-10-26T21:59:39.337Z,3.22
2022-10-26T22:02:12.525Z,3.21
2022-10-26T22:04:46.034Z,3.20
2022-10-26T22:07:20.053Z,3.19
2022-10-26T22:10:07.509Z,3.20
2022-10-26T22:12:28.303Z,3.18
2022-10-26T22:15:01.668Z,3.13
2022-10-26T22:17:36.407Z,3.10
2022-10-26T22:20:13.330Z,3.11
2022-10-26T22:22:46.586Z,3.09
2022-10-26T22:25:20.197Z,3.07
2022-10-26T22:27:53.418Z,3.05
2022-10-26T22:30:27.198Z,2.98
2022-10-26T22:33:00.345Z,2.99
2022-10-26T22:35:33.601Z,2.97
2022-10-26T22:38:06.982Z,2.91
2022-10-26T22:40:40.575Z,2.89
2022-10-26T22:43:14.494Z,2.87
2022-10-26T22:45:47.934Z,2.82
2022-10-26T22:48:21.023Z,2.80
2022-10-26T22:50:54.237Z,2.81
2022-10-26T22:53:27.392Z,2.85
2022-10-26T22:56:01.129Z,2.80
2022-10-26T22:58:35.605Z,2.72
2022-10-26T23:01:11.284Z,2.69
2022-10-26T23:03:45.072Z,2.64
2022-10-26T23:06:20.535Z,2.58
2022-10-26T23:08:53.841Z,2.47
2022-10-26T23:11:28.826Z,2.35
2022-10-26T23:14:03.499Z,2.23
2022-10-26T23:16:36.609Z,2.08
2022-10-26T23:19:10.430Z,1.98
2022-10-26T23:21:43.974Z,1.90
2022-10-26T23:24:17.475Z,1.80
2022-10-26T23:26:51.007Z,1.73
2022-10-26T23:29:24.698Z,1.64
2022-10-26T23:31:58.154Z,1.59
2022-10-26T23:34:31.645Z,1.53
2022-10-26T23:37:05.249Z,1.53
2022-10-26T23:39:38.905Z,1.50
2022-10-26T23:42:12.137Z,1.47
2022-10-26T23:44:45.717Z,1.39
2022-10-26T23:47:19.261Z,1.33
2022-10-26T23:49:52.690Z,1.31
2022-10-26T23:52:26.203Z,1.30
2022-10-26T23:54:59.792Z,1.31
2022-10-26T23:57:34.501Z,1.32
